Trans Exeter — 9HA2572 — position and weather

sailwx.info

Track history (hours):
 
Tides and Currents Weather Stations Pressure Air Temp Water Temp Dewpoint Dewpoint Depression Visibility Wind Speed Wind Dir Waves Ship Positions

Trans Exeter

Last reported at 2016-May-01 17:14 UTC. Time now 2016-May-01 19:27 UTC.
Position N 51°53' E 004°17'.

Length 118 m; draft 5.7 m.

Type: Ship (hazmat cat C). MMSI: 248908000.

Date/timePositionNaut miles runAvg speedWind from/ knotsBaromVisibWave heightAir tempDewpointWater temp
2016-May-01 17:14N 51°53' E 004°17'0 0.0
2016-May-01 16:29N 51°53' E 004°17'0 0.0
2016-May-01 15:20N 51°53' E 004°17'1 1.1
2016-May-01 14:33N 51°53' E 004°18'1 0.9
2016-May-01 13:33N 51°53' E 004°18'0 0.0
2016-May-01 12:33N 51°53' E 004°18'0 0.0
2016-May-01 11:33N 51°53' E 004°18'0 0.0
2016-May-01 10:33N 51°53' E 004°18'0 0.0
2016-May-01 09:33N 51°53' E 004°18'0 0.0
2016-May-01 08:33N 51°53' E 004°18'0 0.0
2016-May-01 07:33N 51°53' E 004°18'0 0.0
2016-May-01 06:33N 51°53' E 004°18'0 0.0
2016-May-01 05:33N 51°53' E 004°18'0 0.0
2016-May-01 04:33N 51°53' E 004°18'0 0.0
2016-May-01 03:33N 51°53' E 004°18'0 0.0
2016-May-01 02:33N 51°53' E 004°18'0 0.0
2016-May-01 01:33N 51°53' E 004°18'2 2.0
2016-May-01 00:33N 51°54' E 004°20'0 0.0
2016-Apr-30 13:32N 51°54' E 004°20'1 0.1
2016-Apr-30 08:13N 51°53' E 004°21'0 0.0
2016-Apr-30 07:28N 51°53' E 004°21'0 0.0
2016-Apr-30 06:22N 51°53' E 004°21'0 0.0
2016-Apr-30 03:24N 51°53' E 004°21'0 0.0
2016-Apr-30 00:33N 51°53' E 004°21'0 0.0
2016-Apr-29 23:30N 51°53' E 004°21'0 0.0
2016-Apr-29 22:21N 51°53' E 004°21'0 0.0
2016-Apr-29 21:33N 51°53' E 004°21'0 0.0
2016-Apr-29 20:30N 51°53' E 004°21'0 0.0
2016-Apr-29 19:24N 51°53' E 004°21'3 3.4
2016-Apr-29 18:34N 51°54' E 004°17'1211.7
2016-Apr-29 17:33N 51°60' E 004°00'21 3.9
2016-Apr-29 12:19N 51°54' E 003°28'0 0.0
2016-Apr-29 11:31N 51°54' E 003°28'0 0.0
2016-Apr-29 10:31N 51°54' E 003°28'13 0.8
2016-Apr-28 18:03N 51°44' E 003°16'612.5
2016-Apr-28 17:32N 51°38' E 003°21'1212.2
2016-Apr-28 16:33N 51°28' E 003°31'8 7.9
2016-Apr-28 15:33N 51°25' E 003°42'5 4.9
2016-Apr-28 14:33N 51°21' E 003°46'0 0.0
2016-Apr-28 13:32N 51°21' E 003°46'0 0.0
2016-Apr-28 12:28N 51°21' E 003°46'0 0.0
2016-Apr-28 11:28N 51°21' E 003°46'0 0.0
2016-Apr-28 09:31N 51°21' E 003°46'0 0.0
2016-Apr-28 08:28N 51°21' E 003°46'0 0.0
2016-Apr-28 07:10N 51°21' E 003°46'0 0.0
2016-Apr-28 06:31N 51°21' E 003°46'1 1.1
2016-Apr-28 05:33N 51°21' E 003°48'9 9.4
2016-Apr-28 04:33N 51°26' E 004°01'8 8.0
2016-Apr-28 03:33N 51°23' E 004°13'8 8.2
2016-Apr-28 02:33N 51°17' E 004°20'0 0.3
2016-Apr-28 01:33N 51°17' E 004°21'1 1.2
2016-Apr-28 00:33N 51°18' E 004°20'0 0.0
2016-Apr-27 23:33N 51°18' E 004°20'0 0.0
2016-Apr-27 22:33N 51°18' E 004°20'0 0.0
2016-Apr-27 21:33N 51°18' E 004°20'0 0.0
2016-Apr-27 20:33N 51°18' E 004°20'0 0.0
2016-Apr-27 19:34N 51°18' E 004°20'0 0.0
2016-Apr-27 18:33N 51°18' E 004°20'0 0.0
2016-Apr-27 17:33N 51°18' E 004°20'0 0.0
2016-Apr-27 16:33N 51°18' E 004°20'0 0.0
2016-Apr-27 15:33N 51°18' E 004°20'0 0.0
2016-Apr-27 14:33N 51°18' E 004°20'0 0.0
2016-Apr-27 13:33N 51°18' E 004°20'0 0.0
2016-Apr-27 12:33N 51°18' E 004°20'0 0.0
2016-Apr-27 11:33N 51°18' E 004°20'0 0.0
2016-Apr-27 10:33N 51°18' E 004°20'0 0.0
2016-Apr-27 09:33N 51°18' E 004°20'0 0.0
2016-Apr-27 08:33N 51°18' E 004°20'0 0.0
2016-Apr-27 07:33N 51°18' E 004°20'0 0.0
2016-Apr-27 06:33N 51°18' E 004°20'0 0.0
2016-Apr-27 05:33N 51°18' E 004°20'0 0.0
2016-Apr-27 04:33N 51°18' E 004°20'0 0.0
2016-Apr-27 03:33N 51°18' E 004°20'0 0.0
2016-Apr-27 02:33N 51°18' E 004°20'0 0.1
2016-Apr-27 01:33N 51°18' E 004°20'0 0.0
2016-Apr-27 00:33N 51°18' E 004°20'0 0.0
2016-Apr-26 23:33N 51°18' E 004°20'0 0.0
2016-Apr-26 22:33N 51°18' E 004°20'0 0.0
2016-Apr-26 21:33N 51°18' E 004°20'0 0.0
2016-Apr-26 20:33N 51°18' E 004°20'0 0.0
2016-Apr-26 19:33N 51°18' E 004°20'0 0.0
2016-Apr-26 18:33N 51°18' E 004°20'0 0.0
2016-Apr-26 17:33N 51°18' E 004°20'0 0.0
2016-Apr-26 16:33N 51°18' E 004°20'0 0.0
2016-Apr-26 15:33N 51°18' E 004°20'0 0.0
2016-Apr-26 14:33N 51°18' E 004°20'0 0.0
2016-Apr-26 13:33N 51°18' E 004°20'0 0.0
2016-Apr-26 12:34N 51°18' E 004°20'0 0.0
2016-Apr-26 11:34N 51°18' E 004°20'0 0.0
2016-Apr-26 10:33N 51°18' E 004°20'0 0.0
2016-Apr-26 09:34N 51°18' E 004°20'0 0.0
2016-Apr-26 08:33N 51°18' E 004°20'0 0.0
2016-Apr-26 07:33N 51°18' E 004°20'0 0.0
2016-Apr-26 06:33N 51°18' E 004°20'0 0.0
2016-Apr-26 05:34N 51°18' E 004°20'0 0.0
2016-Apr-26 04:33N 51°18' E 004°20'0 0.0
2016-Apr-26 03:33N 51°18' E 004°20'0 0.0
2016-Apr-26 02:33N 51°18' E 004°20'0 0.0
2016-Apr-26 01:33N 51°18' E 004°20'0 0.0
2016-Apr-26 00:33N 51°18' E 004°20'0 0.0
2016-Apr-25 23:34N 51°18' E 004°20'0 0.0
2016-Apr-25 22:33N 51°18' E 004°20'0 0.0
2016-Apr-25 21:33N 51°18' E 004°20'0 0.0
2016-Apr-25 20:33N 51°18' E 004°20'0 0.0
2016-Apr-25 19:33N 51°18' E 004°20'0 0.0
2016-Apr-25 18:33N 51°18' E 004°20'0 0.0
2016-Apr-25 17:34N 51°18' E 004°20'0 0.0
2016-Apr-25 16:33N 51°18' E 004°20'0 0.0
2016-Apr-25 15:33N 51°18' E 004°20'0 0.0
2016-Apr-25 14:33N 51°18' E 004°20'0 0.0
2016-Apr-25 13:33N 51°18' E 004°20'1 0.6
2016-Apr-25 12:33N 51°18' E 004°19'3 2.8
2016-Apr-25 11:33N 51°21' E 004°17'1 1.0
2016-Apr-25 10:33N 51°20' E 004°16'2 0.9
2016-Apr-25 08:28N 51°18' E 004°17'0 0.0
2016-Apr-25 05:16N 51°18' E 004°17'0 0.0
2016-Apr-25 04:10N 51°18' E 004°17'0 0.0
2016-Apr-25 03:28N 51°18' E 004°17'0 0.0
2016-Apr-25 02:25N 51°18' E 004°17'0 0.0
2016-Apr-24 23:19N 51°18' E 004°17'0 0.0
2016-Apr-24 22:13N 51°18' E 004°17'0 0.0
2016-Apr-24 21:22N 51°18' E 004°17'0 0.0
2016-Apr-24 20:19N 51°18' E 004°17'0 0.0
2016-Apr-24 18:28N 51°18' E 004°17'0 0.0
2016-Apr-24 17:13N 51°18' E 004°17'0 0.0
2016-Apr-24 16:31N 51°18' E 004°17'0 0.0
2016-Apr-24 15:28N 51°18' E 004°17'0 0.0
2016-Apr-24 14:28N 51°18' E 004°17'0 0.0
2016-Apr-24 13:31N 51°18' E 004°17'1 0.6
2016-Apr-24 12:33N 51°18' E 004°16'6 6.3
2016-Apr-24 11:33N 51°23' E 004°10'9 8.6
2016-Apr-24 10:33N 51°23' E 003°56'10 9.9
2016-Apr-24 09:33N 51°26' E 003°41'9 9.4
2016-Apr-24 08:33N 51°25' E 003°26'9 9.3
2016-Apr-24 07:33N 51°24' E 003°11'9 9.4
2016-Apr-24 06:33N 51°23' E 002°57'2310.7
2016-Apr-24 04:27N 51°19' E 002°21'1213.9
2016-Apr-24 03:33N 51°14' E 002°03'1514.8
2016-Apr-24 02:33N 51°05' E 001°44'6514.4
2016-Apr-23 22:05N 50°25' E 000°24'815.9
2016-Apr-23 21:33N 50°22' E 000°11'1615.7
2016-Apr-23 20:31N 50°18' W 000°13'10611.8
2016-Apr-23 11:33N 49°49' W 002°52'  
Track history (hours):
 
Tides and Currents Weather Stations Pressure Air Temp Water Temp Dewpoint Dewpoint Depression Visibility Wind Speed Wind Dir Waves Ship Positions

Trans Exeter

Last reported at 2016-May-01 17:14 UTC. Time now 2016-May-01 19:27 UTC.
Position N 51°53' E 004°17'.

Length 118 m; draft 5.7 m.

Type: Ship (hazmat cat C). MMSI: 248908000.

Date/timePositionNaut miles runAvg speedWind from/ knotsBaromVisibWave heightAir tempDewpointWater temp
2016-May-01 17:14N 51°53' E 004°17'0 0.0
2016-May-01 16:29N 51°53' E 004°17'0 0.0
2016-May-01 15:20N 51°53' E 004°17'1 1.1
2016-May-01 14:33N 51°53' E 004°18'1 0.9
2016-May-01 13:33N 51°53' E 004°18'0 0.0
2016-May-01 12:33N 51°53' E 004°18'0 0.0
2016-May-01 11:33N 51°53' E 004°18'0 0.0
2016-May-01 10:33N 51°53' E 004°18'0 0.0
2016-May-01 09:33N 51°53' E 004°18'0 0.0
2016-May-01 08:33N 51°53' E 004°18'0 0.0
2016-May-01 07:33N 51°53' E 004°18'0 0.0
2016-May-01 06:33N 51°53' E 004°18'0 0.0
2016-May-01 05:33N 51°53' E 004°18'0 0.0
2016-May-01 04:33N 51°53' E 004°18'0 0.0
2016-May-01 03:33N 51°53' E 004°18'0 0.0
2016-May-01 02:33N 51°53' E 004°18'0 0.0
2016-May-01 01:33N 51°53' E 004°18'2 2.0
2016-May-01 00:33N 51°54' E 004°20'0 0.0
2016-Apr-30 13:32N 51°54' E 004°20'1 0.1
2016-Apr-30 08:13N 51°53' E 004°21'0 0.0
2016-Apr-30 07:28N 51°53' E 004°21'0 0.0
2016-Apr-30 06:22N 51°53' E 004°21'0 0.0
2016-Apr-30 03:24N 51°53' E 004°21'0 0.0
2016-Apr-30 00:33N 51°53' E 004°21'0 0.0
2016-Apr-29 23:30N 51°53' E 004°21'0 0.0
2016-Apr-29 22:21N 51°53' E 004°21'0 0.0
2016-Apr-29 21:33N 51°53' E 004°21'0 0.0
2016-Apr-29 20:30N 51°53' E 004°21'0 0.0
2016-Apr-29 19:24N 51°53' E 004°21'3 3.4
2016-Apr-29 18:34N 51°54' E 004°17'1211.7
2016-Apr-29 17:33N 51°60' E 004°00'21 3.9
2016-Apr-29 12:19N 51°54' E 003°28'0 0.0
2016-Apr-29 11:31N 51°54' E 003°28'0 0.0
2016-Apr-29 10:31N 51°54' E 003°28'13 0.8
2016-Apr-28 18:03N 51°44' E 003°16'612.5
2016-Apr-28 17:32N 51°38' E 003°21'1212.2
2016-Apr-28 16:33N 51°28' E 003°31'8 7.9
2016-Apr-28 15:33N 51°25' E 003°42'5 4.9
2016-Apr-28 14:33N 51°21' E 003°46'0 0.0
2016-Apr-28 13:32N 51°21' E 003°46'0 0.0
2016-Apr-28 12:28N 51°21' E 003°46'0 0.0
2016-Apr-28 11:28N 51°21' E 003°46'0 0.0
2016-Apr-28 09:31N 51°21' E 003°46'0 0.0
2016-Apr-28 08:28N 51°21' E 003°46'0 0.0
2016-Apr-28 07:10N 51°21' E 003°46'0 0.0
2016-Apr-28 06:31N 51°21' E 003°46'1 1.1
2016-Apr-28 05:33N 51°21' E 003°48'9 9.4
2016-Apr-28 04:33N 51°26' E 004°01'8 8.0
2016-Apr-28 03:33N 51°23' E 004°13'8 8.2
2016-Apr-28 02:33N 51°17' E 004°20'0 0.3
2016-Apr-28 01:33N 51°17' E 004°21'1 1.2
2016-Apr-28 00:33N 51°18' E 004°20'0 0.0
2016-Apr-27 23:33N 51°18' E 004°20'0 0.0
2016-Apr-27 22:33N 51°18' E 004°20'0 0.0
2016-Apr-27 21:33N 51°18' E 004°20'0 0.0
2016-Apr-27 20:33N 51°18' E 004°20'0 0.0
2016-Apr-27 19:34N 51°18' E 004°20'0 0.0
2016-Apr-27 18:33N 51°18' E 004°20'0 0.0
2016-Apr-27 17:33N 51°18' E 004°20'0 0.0
2016-Apr-27 16:33N 51°18' E 004°20'0 0.0
2016-Apr-27 15:33N 51°18' E 004°20'0 0.0
2016-Apr-27 14:33N 51°18' E 004°20'0 0.0
2016-Apr-27 13:33N 51°18' E 004°20'0 0.0
2016-Apr-27 12:33N 51°18' E 004°20'0 0.0
2016-Apr-27 11:33N 51°18' E 004°20'0 0.0
2016-Apr-27 10:33N 51°18' E 004°20'0 0.0
2016-Apr-27 09:33N 51°18' E 004°20'0 0.0
2016-Apr-27 08:33N 51°18' E 004°20'0 0.0
2016-Apr-27 07:33N 51°18' E 004°20'0 0.0
2016-Apr-27 06:33N 51°18' E 004°20'0 0.0
2016-Apr-27 05:33N 51°18' E 004°20'0 0.0
2016-Apr-27 04:33N 51°18' E 004°20'0 0.0
2016-Apr-27 03:33N 51°18' E 004°20'0 0.0
2016-Apr-27 02:33N 51°18' E 004°20'0 0.1
2016-Apr-27 01:33N 51°18' E 004°20'0 0.0
2016-Apr-27 00:33N 51°18' E 004°20'0 0.0
2016-Apr-26 23:33N 51°18' E 004°20'0 0.0
2016-Apr-26 22:33N 51°18' E 004°20'0 0.0
2016-Apr-26 21:33N 51°18' E 004°20'0 0.0
2016-Apr-26 20:33N 51°18' E 004°20'0 0.0
2016-Apr-26 19:33N 51°18' E 004°20'0 0.0
2016-Apr-26 18:33N 51°18' E 004°20'0 0.0
2016-Apr-26 17:33N 51°18' E 004°20'0 0.0
2016-Apr-26 16:33N 51°18' E 004°20'0 0.0
2016-Apr-26 15:33N 51°18' E 004°20'0 0.0
2016-Apr-26 14:33N 51°18' E 004°20'0 0.0
2016-Apr-26 13:33N 51°18' E 004°20'0 0.0
2016-Apr-26 12:34N 51°18' E 004°20'0 0.0
2016-Apr-26 11:34N 51°18' E 004°20'0 0.0
2016-Apr-26 10:33N 51°18' E 004°20'0 0.0
2016-Apr-26 09:34N 51°18' E 004°20'0 0.0
2016-Apr-26 08:33N 51°18' E 004°20'0 0.0
2016-Apr-26 07:33N 51°18' E 004°20'0 0.0
2016-Apr-26 06:33N 51°18' E 004°20'0 0.0
2016-Apr-26 05:34N 51°18' E 004°20'0 0.0
2016-Apr-26 04:33N 51°18' E 004°20'0 0.0
2016-Apr-26 03:33N 51°18' E 004°20'0 0.0
2016-Apr-26 02:33N 51°18' E 004°20'0 0.0
2016-Apr-26 01:33N 51°18' E 004°20'0 0.0
2016-Apr-26 00:33N 51°18' E 004°20'0 0.0
2016-Apr-25 23:34N 51°18' E 004°20'0 0.0
2016-Apr-25 22:33N 51°18' E 004°20'0 0.0
2016-Apr-25 21:33N 51°18' E 004°20'0 0.0
2016-Apr-25 20:33N 51°18' E 004°20'0 0.0
2016-Apr-25 19:33N 51°18' E 004°20'0 0.0
2016-Apr-25 18:33N 51°18' E 004°20'0 0.0
2016-Apr-25 17:34N 51°18' E 004°20'0 0.0
2016-Apr-25 16:33N 51°18' E 004°20'0 0.0
2016-Apr-25 15:33N 51°18' E 004°20'0 0.0
2016-Apr-25 14:33N 51°18' E 004°20'0 0.0
2016-Apr-25 13:33N 51°18' E 004°20'1 0.6
2016-Apr-25 12:33N 51°18' E 004°19'3 2.8
2016-Apr-25 11:33N 51°21' E 004°17'1 1.0
2016-Apr-25 10:33N 51°20' E 004°16'2 0.9
2016-Apr-25 08:28N 51°18' E 004°17'0 0.0
2016-Apr-25 05:16N 51°18' E 004°17'0 0.0
2016-Apr-25 04:10N 51°18' E 004°17'0 0.0
2016-Apr-25 03:28N 51°18' E 004°17'0 0.0
2016-Apr-25 02:25N 51°18' E 004°17'0 0.0
2016-Apr-24 23:19N 51°18' E 004°17'0 0.0
2016-Apr-24 22:13N 51°18' E 004°17'0 0.0
2016-Apr-24 21:22N 51°18' E 004°17'0 0.0
2016-Apr-24 20:19N 51°18' E 004°17'0 0.0
2016-Apr-24 18:28N 51°18' E 004°17'0 0.0
2016-Apr-24 17:13N 51°18' E 004°17'0 0.0
2016-Apr-24 16:31N 51°18' E 004°17'0 0.0
2016-Apr-24 15:28N 51°18' E 004°17'0 0.0
2016-Apr-24 14:28N 51°18' E 004°17'0 0.0
2016-Apr-24 13:31N 51°18' E 004°17'1 0.6
2016-Apr-24 12:33N 51°18' E 004°16'6 6.3
2016-Apr-24 11:33N 51°23' E 004°10'9 8.6
2016-Apr-24 10:33N 51°23' E 003°56'10 9.9
2016-Apr-24 09:33N 51°26' E 003°41'9 9.4
2016-Apr-24 08:33N 51°25' E 003°26'9 9.3
2016-Apr-24 07:33N 51°24' E 003°11'9 9.4
2016-Apr-24 06:33N 51°23' E 002°57'2310.7
2016-Apr-24 04:27N 51°19' E 002°21'1213.9
2016-Apr-24 03:33N 51°14' E 002°03'1514.8
2016-Apr-24 02:33N 51°05' E 001°44'6514.4
2016-Apr-23 22:05N 50°25' E 000°24'815.9
2016-Apr-23 21:33N 50°22' E 000°11'1615.7
2016-Apr-23 20:31N 50°18' W 000°13'10611.8
2016-Apr-23 11:33N 49°49' W 002°52'  

Dump ship's entire track history